Time;durP1;ratioP1;P1;durP2;ratioP2;P2;SDS_P1;SDS_P2;PMS_P1;PMS_P2;Temp;Humidity;BMP_temperature;BMP_pressure;BME280_temperature;BME280_humidity;BME280_pressure;Samples;Min_cycle;Max_cycle;Signal;HPM_P1;HPM_P2
2024/04/15 00:00:21;;;;;;;5.47;2.13;;;17.30;63.40;;;;;;5527398;25;20515;-58
2024/04/15 00:02:50;;;;;;;6.63;2.23;;;17.30;63.60;;;;;;5527643;25;20991;-57
2024/04/15 00:05:16;;;;;;;6.20;2.13;;;17.30;63.90;;;;;;5527450;25;20490;-57
2024/04/15 00:07:44;;;;;;;2.90;2.10;;;17.20;63.90;;;;;;5527437;25;20471;-58
2024/04/15 00:10:10;;;;;;;7.50;2.50;;;17.20;64.20;;;;;;5527309;25;20575;-57
2024/04/15 00:12:39;;;;;;;4.57;2.40;;;17.20;64.40;;;;;;5527592;25;20960;-57
2024/04/15 00:15:09;;;;;;;11.20;3.87;;;17.20;64.50;;;;;;5527514;25;20262;-58
2024/04/15 00:17:37;;;;;;;3.87;2.27;;;17.20;64.60;;;;;;5527581;25;20446;-57
2024/04/15 00:20:06;;;;;;;6.53;2.80;;;17.10;64.60;;;;;;5527541;25;20454;-58
2024/04/15 00:22:32;;;;;;;4.70;1.80;;;17.10;64.80;;;;;;5527556;25;20449;-57
2024/04/15 00:25:00;;;;;;;4.40;2.63;;;17.10;65.00;;;;;;5527416;25;20503;-57
2024/04/15 00:27:26;;;;;;;7.73;3.07;;;17.10;65.20;;;;;;5527473;25;20229;-57
2024/04/15 00:29:54;;;;;;;5.20;2.83;;;17.10;65.50;;;;;;5525950;25;20512;-56
2024/04/15 00:32:20;;;;;;;3.90;2.20;;;17.00;65.60;;;;;;5527276;25;20286;-57
2024/04/15 00:34:52;;;;;;;4.40;3.47;;;17.00;65.70;;;;;;5527421;25;20450;-57
2024/04/15 00:37:18;;;;;;;4.97;3.20;;;17.00;65.90;;;;;;5527385;25;20217;-57
2024/04/15 00:39:47;;;;;;;6.03;2.97;;;17.00;66.00;;;;;;5527465;25;20511;-57
2024/04/15 00:42:12;;;;;;;4.53;2.30;;;16.90;66.00;;;;;;5527303;25;20710;-56
2024/04/15 00:44:41;;;;;;;5.00;3.17;;;16.90;66.30;;;;;;5527358;25;20571;-56
2024/04/15 00:47:09;;;;;;;4.63;2.40;;;16.90;66.30;;;;;;5527152;26;20540;-57
2024/04/15 00:49:38;;;;;;;4.60;2.57;;;16.90;66.50;;;;;;5527254;25;20462;-56
2024/04/15 00:52:07;;;;;;;3.97;2.20;;;16.90;66.80;;;;;;5527359;25;20497;-57
2024/04/15 00:54:37;;;;;;;5.07;2.50;;;16.80;67.00;;;;;;5526865;25;20442;-56
2024/04/15 00:57:04;;;;;;;5.00;2.53;;;16.80;67.10;;;;;;5527237;25;20458;-57
2024/04/15 00:59:32;;;;;;;6.37;2.57;;;16.80;67.40;;;;;;5526952;25;20522;-56
2024/04/15 01:01:59;;;;;;;3.10;2.33;;;16.80;67.70;;;;;;5526798;25;20458;-59
2024/04/15 01:04:27;;;;;;;4.97;3.07;;;16.80;67.80;;;;;;5526619;25;20780;-56
2024/04/15 01:06:54;;;;;;;5.40;2.97;;;16.70;67.90;;;;;;5526685;25;20453;-56
2024/04/15 01:09:25;;;;;;;2.90;2.20;;;16.70;68.00;;;;;;5526615;25;20515;-56
2024/04/15 01:11:51;;;;;;;6.80;2.80;;;16.70;68.30;;;;;;5526827;25;20446;-56
2024/04/15 01:14:20;;;;;;;7.27;2.90;;;16.70;68.40;;;;;;5526597;25;20450;-56
2024/04/15 01:16:46;;;;;;;3.23;2.27;;;16.60;68.50;;;;;;5526663;25;20221;-57
2024/04/15 01:19:14;;;;;;;6.13;2.90;;;16.60;68.70;;;;;;5526263;25;20582;-56
2024/04/15 01:21:40;;;;;;;3.07;2.07;;;16.60;68.80;;;;;;5526589;25;20244;-56
2024/04/15 01:24:12;;;;;;;5.10;2.77;;;16.60;69.00;;;;;;5526741;25;20501;-57
2024/04/15 01:26:44;;;;;;;4.23;2.73;;;16.50;69.10;;;;;;5526380;25;20724;-56
2024/04/15 01:29:12;;;;;;;4.23;2.70;;;16.50;69.10;;;;;;5526426;25;20828;-56
2024/04/15 01:31:38;;;;;;;3.83;2.20;;;16.40;69.10;;;;;;5526236;25;20458;-56
2024/04/15 01:34:07;;;;;;;2.80;2.43;;;16.40;69.30;;;;;;5526219;25;20548;-56
2024/04/15 01:36:32;;;;;;;4.00;2.40;;;16.30;69.20;;;;;;5526280;25;20221;-56
2024/04/15 01:39:01;;;;;;;7.07;2.97;;;16.30;69.40;;;;;;5525995;25;20513;-56
2024/04/15 01:41:29;;;;;;;4.93;2.70;;;16.30;69.60;;;;;;5525837;25;20309;-56
2024/04/15 01:43:58;;;;;;;4.13;2.30;;;16.30;69.70;;;;;;5526163;25;20450;-56
2024/04/15 01:46:24;;;;;;;3.70;2.60;;;16.20;69.70;;;;;;5525694;25;20458;-56
2024/04/15 01:48:52;;;;;;;3.33;2.47;;;16.20;69.80;;;;;;5526077;25;20518;-56
2024/04/15 01:51:18;;;;;;;4.10;2.70;;;16.20;69.80;;;;;;5526053;25;20723;-56
2024/04/15 01:53:47;;;;;;;3.40;2.77;;;16.20;70.00;;;;;;5526160;25;20447;-56
2024/04/15 01:56:12;;;;;;;5.70;2.50;;;16.10;69.90;;;;;;5525960;25;20225;-56
2024/04/15 01:58:43;;;;;;;5.50;2.70;;;16.10;70.00;;;;;;5525827;25;20530;-56
2024/04/15 02:01:09;;;;;;;4.20;2.83;;;16.10;70.00;;;;;;5525987;25;20311;-56
2024/04/15 02:03:38;;;;;;;3.80;2.60;;;16.00;69.90;;;;;;5525693;25;20458;-56
2024/04/15 02:06:04;;;;;;;3.67;2.00;;;16.00;69.90;;;;;;5525393;25;20309;-57
2024/04/15 02:08:32;;;;;;;4.37;2.80;;;16.00;69.90;;;;;;5525363;25;20510;-57
2024/04/15 02:10:58;;;;;;;3.33;2.50;;;15.90;70.10;;;;;;5525527;25;20498;-56
2024/04/15 02:13:27;;;;;;;6.10;2.77;;;15.90;70.30;;;;;;5525677;25;20450;-56
2024/04/15 02:15:55;;;;;;;6.80;2.93;;;15.90;70.50;;;;;;5525563;25;20273;-56
2024/04/15 02:18:23;;;;;;;5.03;2.50;;;15.80;70.50;;;;;;5525380;25;20803;-56
2024/04/15 02:20:49;;;;;;;5.60;3.10;;;15.80;70.60;;;;;;5525515;25;20450;-56
2024/04/15 02:23:18;;;;;;;6.47;4.30;;;15.80;70.80;;;;;;5525470;25;20903;-56
2024/04/15 02:25:44;;;;;;;5.10;2.80;;;15.70;70.90;;;;;;5525307;25;20213;-56
2024/04/15 02:28:12;;;;;;;4.47;3.17;;;15.70;71.00;;;;;;5525114;25;20502;-57
2024/04/15 02:30:38;;;;;;;4.47;2.67;;;15.70;71.30;;;;;;5525302;25;20221;-57
2024/04/15 02:33:09;;;;;;;6.63;2.97;;;15.60;71.30;;;;;;5525457;25;21026;-56
2024/04/15 02:35:35;;;;;;;4.03;3.07;;;15.60;71.60;;;;;;5525489;25;20247;-56
2024/04/15 02:38:04;;;;;;;6.43;3.20;;;15.50;71.60;;;;;;5525360;25;20854;-57
2024/04/15 02:40:30;;;;;;;5.97;3.53;;;15.40;71.80;;;;;;5524645;25;20225;-56
2024/04/15 02:42:58;;;;;;;7.90;3.50;;;15.30;72.10;;;;;;5525181;25;20453;-56
2024/04/15 02:45:24;;;;;;;5.90;3.60;;;15.20;72.60;;;;;;5524829;25;20256;-57
2024/04/15 02:47:52;;;;;;;7.50;3.30;;;15.10;72.80;;;;;;5525106;25;20454;-57
2024/04/15 02:50:21;;;;;;;6.47;3.33;;;15.00;73.20;;;;;;5524737;25;20225;-57
2024/04/15 02:52:49;;;;;;;6.50;3.97;;;14.90;73.60;;;;;;5525257;25;20461;-57
2024/04/15 02:55:15;;;;;;;4.37;3.07;;;14.90;74.00;;;;;;5528637;25;20457;-56
2024/04/15 02:57:44;;;;;;;4.53;3.13;;;14.80;74.40;;;;;;5528541;25;20540;-57
2024/04/15 03:00:10;;;;;;;7.13;3.87;;;14.70;74.50;;;;;;5528352;25;21009;-57
2024/04/15 03:02:39;;;;;;;4.33;3.27;;;14.70;74.70;;;;;;5528719;25;20488;-57
2024/04/15 03:05:05;;;;;;;5.53;3.63;;;14.70;74.70;;;;;;5528620;25;20445;-56
2024/04/15 03:07:36;;;;;;;9.80;3.70;;;14.60;74.60;;;;;;5528451;25;20539;-56
2024/04/15 03:10:02;;;;;;;6.37;3.73;;;14.50;74.70;;;;;;5528510;25;21065;-56
2024/04/15 03:12:30;;;;;;;4.87;3.90;;;14.50;75.00;;;;;;5528434;25;20450;-56
2024/04/15 03:14:56;;;;;;;9.00;3.90;;;14.40;75.20;;;;;;5528048;25;20469;-56
2024/04/15 03:17:25;;;;;;;5.10;4.00;;;14.40;75.30;;;;;;5528212;25;20559;-56
2024/04/15 03:19:51;;;;;;;6.60;4.27;;;14.20;75.60;;;;;;5528204;25;20279;-57
2024/04/15 03:22:20;;;;;;;5.10;3.50;;;14.20;76.20;;;;;;5528391;25;20835;-56
2024/04/15 03:24:49;;;;;;;6.17;4.10;;;14.20;76.10;;;;;;5528240;25;20563;-56
2024/04/15 03:27:19;;;;;;;9.47;3.63;;;14.10;76.40;;;;;;5528217;25;20980;-56
2024/04/15 03:29:45;;;;;;;5.23;3.40;;;14.10;76.70;;;;;;5528110;25;21016;-56
2024/04/15 03:32:14;;;;;;;5.83;3.87;;;14.10;76.70;;;;;;5527655;25;20506;-56
2024/04/15 03:34:39;;;;;;;6.67;4.60;;;14.10;76.40;;;;;;5527913;25;20488;-56
2024/04/15 03:37:08;;;;;;;6.50;4.53;;;14.00;76.50;;;;;;5527759;25;21094;-56
2024/04/15 03:39:36;;;;;;;5.83;3.73;;;14.00;76.90;;;;;;5527737;25;20678;-56
2024/04/15 03:42:08;;;;;;;5.40;4.20;;;14.00;77.00;;;;;;5528113;25;20555;-56
2024/04/15 03:44:33;;;;;;;6.97;3.93;;;13.90;77.00;;;;;;5528072;25;20454;-56
2024/04/15 03:47:02;;;;;;;12.63;4.97;;;13.90;77.30;;;;;;5528101;25;20480;-56
2024/04/15 03:49:28;;;;;;;6.10;4.40;;;13.90;77.10;;;;;;5527691;25;20233;-57
2024/04/15 03:51:56;;;;;;;4.43;3.50;;;13.90;77.50;;;;;;5527622;25;21024;-56
2024/04/15 03:54:22;;;;;;;5.73;3.80;;;13.90;77.40;;;;;;5527325;25;20233;-56
2024/04/15 03:56:50;;;;;;;8.53;4.10;;;13.90;77.40;;;;;;5527770;25;20650;-57
2024/04/15 03:59:19;;;;;;;5.20;3.43;;;13.90;77.50;;;;;;5527409;25;20241;-57
2024/04/15 04:01:47;;;;;;;6.30;4.63;;;13.80;77.60;;;;;;5527536;25;20438;-56
2024/04/15 04:04:15;;;;;;;4.00;3.47;;;13.90;77.60;;;;;;5527471;25;20490;-57
2024/04/15 04:06:43;;;;;;;8.70;3.97;;;13.90;77.40;;;;;;5527546;25;20995;-56
2024/04/15 04:09:09;;;;;;;8.33;3.63;;;13.90;77.10;;;;;;5527314;25;20450;-56
2024/04/15 04:11:37;;;;;;;6.00;4.10;;;13.90;77.30;;;;;;5527876;25;20797;-56
2024/04/15 04:14:03;;;;;;;7.93;4.60;;;13.80;77.20;;;;;;5527450;25;20225;-57
2024/04/15 04:16:34;;;;;;;7.63;4.63;;;13.80;77.40;;;;;;5527270;25;21074;-56
2024/04/15 04:19:00;;;;;;;5.10;4.10;;;13.70;77.40;;;;;;5527418;25;20313;-56
2024/04/15 04:21:28;;;;;;;8.53;4.00;;;13.60;77.50;;;;;;5527341;25;20458;-56
2024/04/15 04:23:55;;;;;;;5.70;3.80;;;13.60;78.00;;;;;;5527240;25;20320;-56
2024/04/15 04:26:24;;;;;;;6.23;4.70;;;13.50;78.00;;;;;;5527291;25;20490;-56
2024/04/15 04:28:49;;;;;;;7.40;4.50;;;13.40;78.00;;;;;;5526978;25;20478;-56
2024/04/15 04:31:19;;;;;;;6.50;4.90;;;13.40;78.50;;;;;;5527345;25;20502;-56
2024/04/15 04:33:48;;;;;;;6.07;3.80;;;13.10;79.30;;;;;;5527773;25;20225;-57
2024/04/15 04:36:19;;;;;;;3.70;3.40;;;13.10;79.80;;;;;;5526923;25;20454;-57
2024/04/15 04:38:45;;;;;;;5.73;4.07;;;13.00;79.60;;;;;;5527015;25;20608;-56
2024/04/15 04:41:14;;;;;;;5.83;3.57;;;13.10;79.80;;;;;;5527585;25;20454;-57
2024/04/15 04:43:40;;;;;;;7.43;3.97;;;13.10;79.70;;;;;;5527551;25;20218;-56
2024/04/15 04:46:12;;;;;;;4.77;4.00;;;13.10;79.60;;;;;;5527266;25;20490;-56
2024/04/15 04:48:38;;;;;;;9.20;4.27;;;13.10;79.40;;;;;;5527122;25;20462;-56
2024/04/15 04:51:10;;;;;;;6.93;4.13;;;13.10;79.00;;;;;;5527860;25;21059;-56
2024/04/15 04:53:37;;;;;;;4.73;3.80;;;13.00;79.10;;;;;;5527265;25;20929;-56
2024/04/15 04:56:10;;;;;;;4.70;3.50;;;13.00;79.30;;;;;;5527372;25;21051;-57
2024/04/15 04:58:36;;;;;;;5.23;3.60;;;13.00;79.60;;;;;;5527143;25;20629;-57
2024/04/15 05:01:14;;;;;;;6.27;3.70;;;13.00;78.80;;;;;;5527344;25;20450;-57
2024/04/15 05:03:42;;;;;;;5.73;4.20;;;12.90;79.30;;;;;;5527239;25;20453;-56
2024/04/15 05:06:15;;;;;;;5.93;3.43;;;12.80;79.50;;;;;;5527380;25;20446;-57
2024/04/15 05:08:40;;;;;;;6.23;3.70;;;12.70;79.50;;;;;;5527350;25;20517;-57
2024/04/15 05:11:09;;;;;;;6.40;3.37;;;12.60;79.30;;;;;;5527064;25;20623;-56
2024/04/15 05:13:35;;;;;;;6.23;3.60;;;12.70;79.90;;;;;;5527043;25;20454;-56
2024/04/15 05:16:05;;;;;;;6.87;3.27;;;12.60;80.20;;;;;;5526179;25;20462;-56
2024/04/15 05:18:31;;;;;;;3.80;2.70;;;12.70;80.00;;;;;;5526891;25;20446;-57
2024/04/15 05:21:01;;;;;;;10.20;4.00;;;12.50;79.20;;;;;;5526791;25;20999;-56
2024/04/15 05:23:30;;;;;;;6.00;3.10;;;12.40;80.40;;;;;;5526914;25;20442;-56
2024/04/15 05:26:01;;;;;;;8.57;3.10;;;12.40;80.40;;;;;;5526801;25;21017;-55
2024/04/15 05:28:27;;;;;;;6.37;2.50;;;12.30;80.30;;;;;;5526930;25;20809;-56
2024/04/15 05:30:57;;;;;;;7.50;3.27;;;12.20;80.90;;;;;;5526848;25;20506;-56
2024/04/15 05:33:23;;;;;;;3.00;2.27;;;12.10;80.80;;;;;;5527142;25;20321;-56
2024/04/15 05:35:52;;;;;;;7.40;2.63;;;12.20;81.80;;;;;;5526712;25;20458;-56
2024/04/15 05:38:18;;;;;;;4.37;2.50;;;12.10;82.10;;;;;;5526578;25;20498;-56
2024/04/15 05:40:49;;;;;;;5.90;2.33;;;12.20;81.60;;;;;;5526668;25;20908;-57
2024/04/15 05:43:15;;;;;;;6.13;2.40;;;12.30;81.30;;;;;;5526791;25;20309;-57
2024/04/15 05:45:44;;;;;;;7.60;2.60;;;12.40;81.20;;;;;;5526663;25;20793;-57
2024/04/15 05:48:10;;;;;;;4.93;1.63;;;12.40;80.50;;;;;;5526609;25;20213;-56
2024/04/15 05:50:39;;;;;;;5.13;2.63;;;12.40;80.70;;;;;;5526545;25;20454;-57
2024/04/15 05:53:04;;;;;;;11.83;2.30;;;12.60;80.60;;;;;;5526529;25;20458;-57
2024/04/15 05:55:33;;;;;;;7.70;2.70;;;12.70;79.80;;;;;;5526546;25;20568;-56
2024/04/15 05:58:01;;;;;;;5.63;2.20;;;12.60;80.20;;;;;;5526430;25;20222;-56
2024/04/15 06:00:30;;;;;;;8.67;2.23;;;12.50;79.80;;;;;;5526297;25;20466;-56
2024/04/15 06:02:56;;;;;;;8.20;2.50;;;12.50;80.80;;;;;;5526283;25;20570;-56
2024/04/15 06:05:25;;;;;;;5.03;2.10;;;12.40;81.30;;;;;;5526331;25;20454;-56
2024/04/15 06:07:52;;;;;;;3.80;2.23;;;12.40;81.40;;;;;;5526466;25;20285;-56
2024/04/15 06:10:20;;;;;;;6.90;2.57;;;12.40;81.30;;;;;;5526222;25;20462;-56
2024/04/15 06:12:47;;;;;;;5.57;2.03;;;12.40;81.60;;;;;;5526197;25;20984;-56
2024/04/15 06:15:18;;;;;;;11.33;2.90;;;12.50;81.60;;;;;;5526183;25;20442;-56
2024/04/15 06:17:44;;;;;;;5.40;2.50;;;12.50;81.60;;;;;;5526038;25;20502;-56
2024/04/15 06:20:12;;;;;;;12.40;3.00;;;12.60;81.20;;;;;;5526329;25;20477;-56
2024/04/15 06:22:38;;;;;;;5.83;2.03;;;12.70;80.90;;;;;;5525976;25;20217;-57
2024/04/15 06:25:07;;;;;;;11.13;3.00;;;12.60;81.10;;;;;;5525865;25;20797;-56
2024/04/15 06:27:33;;;;;;;7.17;2.50;;;12.50;81.30;;;;;;5525707;25;20209;-56
2024/04/15 06:30:04;;;;;;;7.03;3.10;;;12.50;81.80;;;;;;5529632;25;20800;-56
2024/04/15 06:32:32;;;;;;;9.03;2.67;;;12.50;81.90;;;;;;5529510;25;20213;-56
2024/04/15 06:35:01;;;;;;;10.87;2.50;;;12.50;82.10;;;;;;5529605;25;20442;-55
2024/04/15 06:37:26;;;;;;;8.33;2.77;;;12.60;81.90;;;;;;5529424;25;20461;-56
2024/04/15 06:39:55;;;;;;;10.80;2.90;;;12.60;82.10;;;;;;5529380;25;20576;-56
2024/04/15 06:42:21;;;;;;;7.70;2.80;;;12.50;82.00;;;;;;5529517;25;20312;-56
2024/04/15 06:44:50;;;;;;;9.07;2.67;;;12.40;82.20;;;;;;5529569;25;20454;-56
2024/04/15 06:47:16;;;;;;;8.70;2.60;;;12.50;82.80;;;;;;5529326;25;20450;-56
2024/04/15 06:49:47;;;;;;;7.13;2.90;;;12.40;83.00;;;;;;5529347;25;20507;-56
2024/04/15 06:52:13;;;;;;;6.30;3.30;;;12.40;83.00;;;;;;5529327;25;20202;-56
2024/04/15 06:54:42;;;;;;;7.20;3.50;;;12.30;83.80;;;;;;5529109;25;20434;-56
2024/04/15 06:57:08;;;;;;;6.73;2.77;;;12.30;84.20;;;;;;5529040;25;20446;-56
2024/04/15 06:59:36;;;;;;;8.37;3.07;;;12.20;84.30;;;;;;5529034;25;21156;-56
2024/04/15 07:02:02;;;;;;;8.70;2.80;;;12.10;84.80;;;;;;5529160;25;20217;-56
2024/04/15 07:04:31;;;;;;;8.57;2.63;;;12.20;84.70;;;;;;5529021;25;20505;-56
2024/04/15 07:06:59;;;;;;;7.70;2.97;;;12.00;85.00;;;;;;5528861;25;20322;-56
2024/04/15 07:09:27;;;;;;;9.50;4.60;;;12.10;85.40;;;;;;5529150;25;20883;-55
2024/04/15 07:11:53;;;;;;;10.10;2.97;;;12.10;84.90;;;;;;5529000;25;20559;-56
2024/04/15 07:14:22;;;;;;;9.50;3.00;;;12.00;85.40;;;;;;5528990;25;20458;-56
2024/04/15 07:16:47;;;;;;;7.43;2.73;;;12.10;85.60;;;;;;5529004;25;20313;-56
2024/04/15 07:19:16;;;;;;;11.27;2.60;;;12.00;86.00;;;;;;5528852;25;21073;-56
2024/04/15 07:21:42;;;;;;;7.50;3.10;;;11.90;86.90;;;;;;5528906;25;20308;-55
2024/04/15 07:24:13;;;;;;;8.10;2.93;;;11.90;86.70;;;;;;5528775;25;20449;-56
2024/04/15 07:26:40;;;;;;;7.73;3.30;;;11.80;87.50;;;;;;5528765;25;20372;-56
2024/04/15 07:29:10;;;;;;;7.60;2.73;;;11.80;88.00;;;;;;5528572;25;20458;-56
2024/04/15 07:31:36;;;;;;;6.43;2.70;;;11.90;88.70;;;;;;5528667;25;20462;-56
2024/04/15 07:34:04;;;;;;;7.53;3.17;;;11.90;88.30;;;;;;5528648;25;20446;-56
2024/04/15 07:36:30;;;;;;;12.67;3.40;;;12.00;88.50;;;;;;5528859;25;20218;-56
2024/04/15 07:38:58;;;;;;;8.30;3.20;;;12.20;87.90;;;;;;5528025;25;20926;-56
2024/04/15 07:41:27;;;;;;;5.37;2.50;;;12.30;87.90;;;;;;5528681;25;20581;-56
2024/04/15 07:43:55;;;;;;;8.90;2.93;;;12.40;87.50;;;;;;5528591;25;20495;-56
2024/04/15 07:46:21;;;;;;;12.03;4.10;;;12.50;86.60;;;;;;5528549;25;20446;-56
2024/04/15 07:48:50;;;;;;;5.60;3.70;;;12.70;86.00;;;;;;5528658;25;20872;-56
2024/04/15 07:51:16;;;;;;;12.50;3.43;;;12.70;85.20;;;;;;5528458;25;20210;-56
2024/04/15 07:53:44;;;;;;;8.03;3.13;;;12.70;86.10;;;;;;5528385;25;20870;-56
2024/04/15 07:56:11;;;;;;;7.53;3.00;;;12.80;85.80;;;;;;5528292;25;20648;-56
2024/04/15 07:58:42;;;;;;;5.93;2.90;;;12.90;84.80;;;;;;5528175;25;21070;-56
2024/04/15 08:01:08;;;;;;;11.53;2.87;;;13.00;83.50;;;;;;5528258;25;20536;-56
2024/04/15 08:03:36;;;;;;;10.20;3.17;;;13.20;84.10;;;;;;5528354;25;20458;-56
2024/04/15 08:06:02;;;;;;;8.03;2.70;;;13.30;83.30;;;;;;5528181;25;20329;-56
2024/04/15 08:08:31;;;;;;;8.47;2.63;;;13.40;82.30;;;;;;5529327;25;20810;-56
2024/04/15 08:10:57;;;;;;;5.70;2.87;;;13.60;81.20;;;;;;5529686;25;20499;-57
2024/04/15 08:13:25;;;;;;;7.40;2.97;;;13.80;81.00;;;;;;5530118;25;20458;-56
2024/04/15 08:15:54;;;;;;;7.33;2.70;;;14.00;77.60;;;;;;5528404;25;20556;-56
2024/04/15 08:18:22;;;;;;;5.60;2.20;;;14.00;75.80;;;;;;5527886;25;21063;-56
2024/04/15 08:20:53;;;;;;;6.90;2.50;;;14.20;77.00;;;;;;5528118;25;20446;-56
2024/04/15 08:23:22;;;;;;;4.77;1.90;;;14.40;75.00;;;;;;5527913;25;20850;-56
2024/04/15 08:25:51;;;;;;;7.10;1.90;;;14.40;73.70;;;;;;5527867;25;20446;-56
2024/04/15 08:28:20;;;;;;;6.47;2.10;;;14.40;74.60;;;;;;5527695;25;21039;-56
2024/04/15 08:30:46;;;;;;;5.80;2.40;;;14.60;73.80;;;;;;5527723;25;20804;-57
2024/04/15 08:33:17;;;;;;;7.50;2.33;;;14.70;73.40;;;;;;5527796;25;20502;-57
2024/04/15 08:35:43;;;;;;;9.07;2.30;;;14.60;72.40;;;;;;5527825;25;20614;-57
2024/04/15 08:38:11;;;;;;;5.70;2.00;;;14.80;73.50;;;;;;5527663;25;20446;-57
2024/04/15 08:40:37;;;;;;;3.13;1.90;;;14.80;72.40;;;;;;5527610;25;20717;-56
2024/04/15 08:43:06;;;;;;;5.80;2.23;;;14.80;68.90;;;;;;5527720;25;20454;-57
2024/04/15 08:45:33;;;;;;;6.60;1.90;;;14.70;68.20;;;;;;5527579;25;20309;-57
2024/04/15 08:48:01;;;;;;;3.77;1.90;;;14.60;69.50;;;;;;5527782;25;20446;-57
2024/04/15 08:50:30;;;;;;;7.67;1.90;;;14.60;69.70;;;;;;5526443;25;20522;-58
2024/04/15 08:52:59;;;;;;;9.60;2.30;;;14.60;69.80;;;;;;5527456;25;20457;-58
2024/04/15 08:55:25;;;;;;;9.07;2.50;;;14.60;70.10;;;;;;5527463;25;20474;-58
2024/04/15 08:57:55;;;;;;;6.77;1.70;;;14.80;70.80;;;;;;5527417;25;20458;-58
2024/04/15 09:00:22;;;;;;;2.60;1.63;;;14.90;70.70;;;;;;5527356;25;20923;-58
2024/04/15 09:02:53;;;;;;;5.53;1.63;;;15.00;69.30;;;;;;5527424;25;20446;-58
2024/04/15 09:05:19;;;;;;;7.20;1.50;;;15.10;68.60;;;;;;5527347;25;20446;-58
2024/04/15 09:07:52;;;;;;;5.00;2.43;;;15.10;69.10;;;;;;5527406;25;20462;-57
2024/04/15 09:10:18;;;;;;;5.30;2.20;;;15.20;67.90;;;;;;5527243;25;20634;-57
2024/04/15 09:12:48;;;;;;;7.03;2.53;;;15.20;67.60;;;;;;5527345;25;20446;-56
2024/04/15 09:15:14;;;;;;;5.33;2.17;;;15.30;67.40;;;;;;5527560;25;20446;-56
2024/04/15 09:17:44;;;;;;;4.73;1.93;;;15.40;66.50;;;;;;5527160;25;20987;-57
2024/04/15 09:20:10;;;;;;;4.90;2.50;;;15.60;68.10;;;;;;5527071;25;20572;-56
2024/04/15 09:22:39;;;;;;;7.27;2.27;;;15.80;66.80;;;;;;5527162;25;20458;-57
2024/04/15 09:25:08;;;;;;;9.33;2.83;;;15.90;67.20;;;;;;5527046;25;20454;-57
2024/04/15 09:27:36;;;;;;;3.97;2.20;;;15.90;65.00;;;;;;5527052;25;20442;-57
2024/04/15 09:30:04;;;;;;;7.33;2.30;;;15.90;64.20;;;;;;5526953;25;20568;-56
2024/04/15 09:32:33;;;;;;;7.97;2.20;;;16.00;64.90;;;;;;5526997;25;20507;-57
2024/04/15 09:34:59;;;;;;;7.50;2.70;;;16.30;64.10;;;;;;5526951;25;20454;-57
2024/04/15 09:37:31;;;;;;;7.83;2.17;;;16.40;63.80;;;;;;5526756;25;20533;-57
2024/04/15 09:39:57;;;;;;;7.00;2.53;;;16.40;61.00;;;;;;5526763;25;20470;-57
2024/04/15 09:42:29;;;;;;;6.80;2.50;;;16.50;59.90;;;;;;5527106;25;20505;-56
2024/04/15 09:44:57;;;;;;;4.33;2.70;;;16.40;61.50;;;;;;5527156;25;20458;-57
2024/04/15 09:47:26;;;;;;;6.40;2.40;;;16.40;61.90;;;;;;5526919;25;20442;-57
2024/04/15 09:49:52;;;;;;;7.30;2.50;;;16.50;61.90;;;;;;5526646;25;20466;-57
2024/04/15 09:52:23;;;;;;;4.70;2.60;;;16.70;62.80;;;;;;5526726;25;21052;-57
2024/04/15 09:54:53;;;;;;;10.90;2.43;;;16.90;60.40;;;;;;5526694;26;20502;-56
2024/04/15 09:57:23;;;;;;;8.50;2.47;;;16.80;58.60;;;;;;5526688;25;20458;-56
2024/04/15 09:59:55;;;;;;;5.57;1.77;;;16.80;59.70;;;;;;5526500;25;20450;-57
2024/04/15 10:02:29;;;;;;;12.87;2.60;;;16.70;59.70;;;;;;5527729;25;20592;-56
2024/04/15 10:05:01;;;;;;;10.37;2.00;;;16.80;60.90;;;;;;5530078;25;20552;-56
2024/04/15 10:07:30;;;;;;;8.10;2.10;;;17.00;59.40;;;;;;5529905;25;20541;-57
2024/04/15 10:09:58;;;;;;;6.00;2.20;;;17.40;59.80;;;;;;5529874;25;21010;-56
2024/04/15 10:12:27;;;;;;;7.63;2.00;;;17.50;59.10;;;;;;5529863;25;20449;-57
2024/04/15 10:14:57;;;;;;;6.50;2.00;;;17.50;55.30;;;;;;5529795;25;20513;-56
2024/04/15 10:17:28;;;;;;;6.17;2.00;;;17.70;55.30;;;;;;5529789;25;20439;-57
2024/04/15 10:19:54;;;;;;;4.97;2.27;;;17.90;55.50;;;;;;5529732;25;21087;-56
2024/04/15 10:22:24;;;;;;;4.93;2.17;;;18.00;55.30;;;;;;5529773;25;20449;-56
2024/04/15 10:24:51;;;;;;;8.40;1.87;;;18.20;55.80;;;;;;5529758;25;20214;-57
2024/04/15 10:27:19;;;;;;;7.10;1.97;;;18.30;54.90;;;;;;5529616;25;21043;-56
2024/04/15 10:29:49;;;;;;;3.90;2.00;;;18.70;55.30;;;;;;5529602;25;20465;-57
2024/04/15 10:32:26;;;;;;;9.83;2.27;;;19.10;52.40;;;;;;5529649;25;20446;-56
2024/04/15 10:34:53;;;;;;;8.10;2.70;;;19.30;52.80;;;;;;5529571;25;20595;-55
2024/04/15 10:37:30;;;;;;;8.67;2.30;;;19.70;51.70;;;;;;5529496;25;20531;-56
2024/04/15 10:40:00;;;;;;;7.73;1.93;;;19.80;50.10;;;;;;5529346;25;20477;-56
2024/04/15 10:42:29;;;;;;;6.60;1.87;;;19.70;50.40;;;;;;5529808;25;20567;-57
2024/04/15 10:44:55;;;;;;;8.00;2.10;;;19.40;50.60;;;;;;5529366;25;21039;-56
2024/04/15 10:47:26;;;;;;;11.60;2.30;;;18.80;50.10;;;;;;5529394;25;20445;-56
2024/04/15 10:49:52;;;;;;;8.70;1.87;;;18.30;52.60;;;;;;5529375;25;20485;-56
2024/04/15 10:52:22;;;;;;;9.07;2.03;;;18.10;53.60;;;;;;5530042;25;21051;-57
2024/04/15 10:54:48;;;;;;;4.23;1.43;;;18.10;54.10;;;;;;5529813;25;20852;-57
2024/04/15 10:57:17;;;;;;;5.23;1.90;;;17.90;53.40;;;;;;5529697;25;20442;-57
2024/04/15 10:59:43;;;;;;;5.07;1.93;;;17.80;53.20;;;;;;5529276;25;20566;-56
2024/04/15 11:02:11;;;;;;;5.57;2.17;;;17.60;53.50;;;;;;5529201;25;20453;-56
2024/04/15 11:04:40;;;;;;;10.50;2.13;;;17.50;54.10;;;;;;5529249;25;20551;-57
2024/04/15 11:07:10;;;;;;;8.20;1.70;;;17.50;54.10;;;;;;5529029;25;20849;-57
2024/04/15 11:09:36;;;;;;;7.80;2.23;;;17.50;54.10;;;;;;5528977;25;20451;-57
2024/04/15 11:12:06;;;;;;;7.37;2.23;;;17.40;52.90;;;;;;5529234;25;20454;-56
2024/04/15 11:14:32;;;;;;;12.53;2.00;;;17.30;54.30;;;;;;5528195;25;20469;-57
2024/04/15 11:17:01;;;;;;;10.87;2.17;;;17.40;53.50;;;;;;5528978;25;20876;-56
2024/04/15 11:19:26;;;;;;;7.50;1.47;;;17.80;52.90;;;;;;5528771;25;20563;-56
2024/04/15 11:22:07;;;;;;;8.17;1.53;;;18.40;52.90;;;;;;5528995;25;20454;-56
2024/04/15 11:24:35;;;;;;;8.17;1.93;;;18.80;52.20;;;;;;5528965;25;20217;-57
2024/04/15 11:27:07;;;;;;;11.50;2.57;;;19.00;50.80;;;;;;5528813;25;20450;-57
2024/04/15 11:29:33;;;;;;;6.03;1.90;;;18.90;48.60;;;;;;5528832;25;20458;-57
2024/04/15 11:32:02;;;;;;;11.10;1.97;;;18.70;50.00;;;;;;5528822;25;20549;-56
2024/04/15 11:34:27;;;;;;;9.97;1.70;;;18.70;49.70;;;;;;5528743;25;20442;-56
2024/04/15 11:36:56;;;;;;;12.93;2.27;;;18.70;50.00;;;;;;5528811;25;20570;-57
2024/04/15 11:39:26;;;;;;;5.90;1.87;;;18.80;49.60;;;;;;5528506;25;20696;-58
2024/04/15 11:41:54;;;;;;;9.97;1.70;;;18.70;48.50;;;;;;5528638;25;21071;-56
2024/04/15 11:44:20;;;;;;;14.67;2.00;;;18.30;48.00;;;;;;5528595;25;20494;-56
2024/04/15 11:46:49;;;;;;;26.90;2.50;;;17.90;48.90;;;;;;5528845;25;20466;-56
2024/04/15 11:49:18;;;;;;;11.20;2.37;;;17.70;51.60;;;;;;5528402;25;20237;-56
2024/04/15 11:51:46;;;;;;;7.97;1.63;;;17.50;50.50;;;;;;5528481;25;20458;-56
2024/04/15 11:54:15;;;;;;;11.33;2.17;;;17.30;50.40;;;;;;5528404;25;20544;-56
2024/04/15 11:56:43;;;;;;;14.23;1.93;;;17.20;51.50;;;;;;5528341;25;20462;-57
2024/04/15 11:59:12;;;;;;;19.43;2.40;;;17.10;50.50;;;;;;5528282;25;20466;-56
2024/04/15 12:01:38;;;;;;;17.30;2.00;;;16.90;50.30;;;;;;5528349;25;20563;-57
2024/04/15 12:04:06;;;;;;;14.23;2.00;;;16.90;51.00;;;;;;5528260;25;20964;-56
2024/04/15 12:06:32;;;;;;;16.30;2.73;;;16.70;49.40;;;;;;5528321;25;20226;-56
2024/04/15 12:09:01;;;;;;;10.73;1.83;;;16.60;49.50;;;;;;5528406;25;20571;-56
2024/04/15 12:11:27;;;;;;;14.03;2.03;;;16.50;51.20;;;;;;5528165;25;20225;-56
2024/04/15 12:13:58;;;;;;;8.30;2.33;;;16.20;50.10;;;;;;5528073;25;21070;-56
2024/04/15 12:16:23;;;;;;;8.43;1.50;;;16.00;51.50;;;;;;5528273;25;20666;-56
2024/04/15 12:18:52;;;;;;;8.70;2.27;;;15.80;51.50;;;;;;5528016;25;20462;-56
2024/04/15 12:21:18;;;;;;;14.00;1.80;;;15.80;52.30;;;;;;5528061;25;20260;-56
2024/04/15 12:23:46;;;;;;;15.03;2.40;;;15.70;52.10;;;;;;5528006;25;20442;-56
2024/04/15 12:26:12;;;;;;;30.63;2.57;;;15.50;52.50;;;;;;5526336;25;20811;-56
2024/04/15 12:28:41;;;;;;;23.37;1.93;;;15.50;53.50;;;;;;5527826;25;20470;-57
2024/04/15 12:31:12;;;;;;;18.73;2.40;;;15.30;54.40;;;;;;5527955;25;20210;-57
2024/04/15 12:33:40;;;;;;;12.40;2.20;;;15.20;57.00;;;;;;5527974;25;20442;-60
2024/04/15 12:36:08;;;;;;;13.40;1.80;;;15.20;57.80;;;;;;5527820;25;20458;-58
2024/04/15 12:38:37;;;;;;;8.50;2.13;;;15.20;59.20;;;;;;5527640;25;21097;-58
2024/04/15 12:41:03;;;;;;;8.63;1.67;;;15.30;58.50;;;;;;5527762;25;20549;-58
2024/04/15 12:43:31;;;;;;;5.50;1.40;;;15.30;57.20;;;;;;5527792;25;20968;-58
2024/04/15 12:45:57;;;;;;;8.03;1.40;;;15.30;57.00;;;;;;5527691;25;20458;-58
2024/04/15 12:48:28;;;;;;;13.30;1.77;;;15.30;56.10;;;;;;5527571;25;21093;-58